createdAt,value
2018-11-10T00:00:18.094Z,14.60
2018-11-10T00:02:47.100Z,14.60
2018-11-10T00:05:15.843Z,14.60
2018-11-10T00:07:44.304Z,14.70
2018-11-10T00:10:12.602Z,14.60
2018-11-10T00:12:40.897Z,14.70
2018-11-10T00:15:11.146Z,14.70
2018-11-10T00:17:39.528Z,14.70
2018-11-10T00:20:07.916Z,14.70
2018-11-10T00:22:36.731Z,14.70
2018-11-10T00:25:06.035Z,14.70
2018-11-10T00:27:34.459Z,14.80
2018-11-10T00:30:02.855Z,14.80
2018-11-10T00:32:31.264Z,14.80
2018-11-10T00:34:59.677Z,14.80
2018-11-10T00:37:28.098Z,14.80
2018-11-10T00:39:56.483Z,14.80
2018-11-10T00:42:24.899Z,14.80
2018-11-10T00:44:53.240Z,14.90
2018-11-10T00:47:21.598Z,14.80
2018-11-10T00:49:50.083Z,14.80
2018-11-10T00:52:18.390Z,14.90
2018-11-10T00:54:46.735Z,14.90
2018-11-10T00:57:15.091Z,14.80
2018-11-10T00:59:43.475Z,14.80
2018-11-10T01:02:11.767Z,14.80
2018-11-10T01:04:40.012Z,14.80
2018-11-10T01:07:08.307Z,14.80
2018-11-10T01:09:36.599Z,14.80
2018-11-10T01:12:05.615Z,14.70
2018-11-10T01:14:34.093Z,14.70
2018-11-10T01:17:02.338Z,14.70
2018-11-10T01:19:30.617Z,14.70
2018-11-10T01:21:58.928Z,14.80
2018-11-10T01:24:27.218Z,14.80
2018-11-10T01:26:55.485Z,14.80
2018-11-10T01:29:23.776Z,14.80
2018-11-10T01:31:52.079Z,14.90
2018-11-10T01:34:20.644Z,14.90
2018-11-10T01:36:48.904Z,14.80
2018-11-10T01:39:17.389Z,14.80
2018-11-10T01:41:45.646Z,14.80
2018-11-10T01:44:13.910Z,14.80
2018-11-10T01:46:42.188Z,14.80
2018-11-10T01:49:10.483Z,14.80
2018-11-10T01:51:38.843Z,14.80
2018-11-10T01:54:07.142Z,14.80
2018-11-10T01:56:35.385Z,14.80
2018-11-10T01:59:03.622Z,14.80
2018-11-10T02:01:31.991Z,14.90
2018-11-10T02:04:00.248Z,14.90
2018-11-10T02:06:28.646Z,14.90
2018-11-10T02:08:57.011Z,15.00
2018-11-10T02:11:25.299Z,15.00
2018-11-10T02:13:53.555Z,15.10
2018-11-10T02:16:21.829Z,15.10
2018-11-10T02:18:50.062Z,15.10
2018-11-10T02:21:18.352Z,15.20
2018-11-10T02:23:46.631Z,15.20
2018-11-10T02:26:14.922Z,15.20
2018-11-10T02:28:43.280Z,15.30
2018-11-10T02:31:11.574Z,15.30
2018-11-10T02:33:39.901Z,15.30
2018-11-10T02:36:08.183Z,15.40
2018-11-10T02:38:36.568Z,15.40
2018-11-10T02:41:04.794Z,15.40
2018-11-10T02:43:33.045Z,15.40
2018-11-10T02:46:01.292Z,15.50
2018-11-10T02:48:29.571Z,15.60
2018-11-10T02:50:57.821Z,15.60
2018-11-10T02:53:26.189Z,15.60
2018-11-10T02:55:54.407Z,15.60
2018-11-10T02:58:22.714Z,15.70
2018-11-10T03:00:50.959Z,15.70
2018-11-10T03:03:19.331Z,15.80
2018-11-10T03:05:47.663Z,15.80
2018-11-10T03:08:16.052Z,15.80
2018-11-10T03:10:44.474Z,15.90
2018-11-10T03:13:12.619Z,15.80
2018-11-10T03:15:40.911Z,15.90
2018-11-10T03:18:09.198Z,15.90
2018-11-10T03:20:37.586Z,16.00
2018-11-10T03:23:05.843Z,16.00
2018-11-10T03:25:34.099Z,16.10
2018-11-10T03:28:02.396Z,16.10
2018-11-10T03:30:30.651Z,16.10
2018-11-10T03:32:58.906Z,16.10
2018-11-10T03:35:27.191Z,16.20
2018-11-10T03:37:55.423Z,16.20
2018-11-10T03:40:23.727Z,16.20
2018-11-10T03:42:52.013Z,16.30
2018-11-10T03:45:20.284Z,14.60
2018-11-10T03:47:48.600Z,16.30
2018-11-10T03:50:16.915Z,16.30
2018-11-10T03:52:45.152Z,16.30
2018-11-10T03:55:13.409Z,16.30
2018-11-10T03:57:41.685Z,16.30
2018-11-10T04:00:12.194Z,16.30
2018-11-10T04:02:41.224Z,16.30
2018-11-10T04:05:10.258Z,16.30
2018-11-10T04:07:38.867Z,16.20
2018-11-10T04:10:07.163Z,16.20
2018-11-10T04:12:35.484Z,16.20
2018-11-10T04:15:04.294Z,16.20
2018-11-10T04:17:32.615Z,16.20
2018-11-10T04:20:00.924Z,16.20
2018-11-10T04:22:36.558Z,16.20
2018-11-10T04:25:07.339Z,16.20
2018-11-10T04:27:35.606Z,16.10
2018-11-10T04:30:05.375Z,16.10
2018-11-10T04:32:34.340Z,16.10
2018-11-10T04:35:02.644Z,16.10
2018-11-10T04:37:30.897Z,16.10
2018-11-10T04:39:59.216Z,16.10
2018-11-10T04:42:27.459Z,16.10
2018-11-10T04:44:55.789Z,16.00
2018-11-10T04:47:24.027Z,16.00
2018-11-10T04:49:52.406Z,16.00
2018-11-10T04:52:20.671Z,16.00
2018-11-10T04:54:48.976Z,15.90
2018-11-10T04:57:17.354Z,16.00
2018-11-10T04:59:45.734Z,15.90
2018-11-10T05:02:14.049Z,15.90
2018-11-10T05:04:42.353Z,15.90
2018-11-10T05:07:10.606Z,15.80
2018-11-10T05:09:38.912Z,15.90
2018-11-10T05:12:07.703Z,15.80
2018-11-10T05:14:36.071Z,15.80
2018-11-10T05:17:04.771Z,15.70
2018-11-10T05:19:33.056Z,15.70
2018-11-10T05:22:01.355Z,15.70
2018-11-10T05:24:29.871Z,15.70
2018-11-10T05:26:58.128Z,15.80
2018-11-10T05:29:26.454Z,15.80
2018-11-10T05:31:54.707Z,15.80
2018-11-10T05:34:22.983Z,15.80
2018-11-10T05:36:51.311Z,15.80
2018-11-10T05:39:19.550Z,15.80
2018-11-10T05:41:47.812Z,15.80
2018-11-10T05:44:16.134Z,15.80
2018-11-10T05:46:44.631Z,15.80
2018-11-10T05:49:13.575Z,15.90
2018-11-10T05:51:41.845Z,15.90
2018-11-10T05:54:10.160Z,15.90
2018-11-10T05:56:38.423Z,15.90
2018-11-10T05:59:06.803Z,15.80
2018-11-10T06:01:35.113Z,15.60
2018-11-10T06:04:03.513Z,15.60
2018-11-10T06:06:31.807Z,15.50
2018-11-10T06:09:00.114Z,15.30
2018-11-10T06:11:28.399Z,15.20
2018-11-10T06:13:56.656Z,15.10
2018-11-10T06:16:25.022Z,15.00
2018-11-10T06:18:53.375Z,14.90
2018-11-10T06:21:21.699Z,14.80
2018-11-10T06:23:49.986Z,14.80
2018-11-10T06:26:18.320Z,14.70
2018-11-10T06:28:46.568Z,14.70
2018-11-10T06:31:14.839Z,14.70
2018-11-10T06:33:43.116Z,14.70
2018-11-10T06:36:11.400Z,14.50
2018-11-10T06:38:39.646Z,14.50
2018-11-10T06:41:08.390Z,14.50
2018-11-10T06:43:36.686Z,14.40
2018-11-10T06:46:05.109Z,14.50
2018-11-10T06:48:33.413Z,14.50
2018-11-10T06:51:01.768Z,14.50
2018-11-10T06:53:30.030Z,14.50
2018-11-10T06:55:58.395Z,14.60
2018-11-10T06:58:26.686Z,14.60
2018-11-10T07:00:55.079Z,14.60
2018-11-10T07:03:23.701Z,14.50
2018-11-10T07:05:52.061Z,14.50
2018-11-10T07:08:20.416Z,14.40
2018-11-10T07:10:48.735Z,14.30
2018-11-10T07:13:17.173Z,14.30
2018-11-10T07:15:45.575Z,14.20
2018-11-10T07:18:14.015Z,14.20
2018-11-10T07:20:42.188Z,14.20
2018-11-10T07:23:10.512Z,15.30
2018-11-10T07:25:38.816Z,14.00
2018-11-10T07:28:07.107Z,14.00
2018-11-10T07:30:35.453Z,14.00
2018-11-10T07:33:03.763Z,14.10
2018-11-10T07:35:32.093Z,14.10
2018-11-10T07:38:00.378Z,14.10
2018-11-10T07:40:28.689Z,14.10
2018-11-10T07:42:57.032Z,14.10
2018-11-10T07:45:25.300Z,14.20
2018-11-10T07:47:53.547Z,14.30
2018-11-10T07:50:21.788Z,14.30
2018-11-10T07:52:50.047Z,14.30
2018-11-10T07:55:18.311Z,14.30
2018-11-10T07:57:46.609Z,14.30
2018-11-10T08:00:16.206Z,14.40
2018-11-10T08:02:44.544Z,14.40
2018-11-10T08:05:13.341Z,14.50
2018-11-10T08:07:42.554Z,14.50
2018-11-10T08:10:11.499Z,14.50
2018-11-10T08:12:39.836Z,14.50
2018-11-10T08:15:10.455Z,14.60
2018-11-10T08:17:39.207Z,14.60
2018-11-10T08:20:07.983Z,14.70
2018-11-10T08:22:36.246Z,14.70
2018-11-10T08:25:04.962Z,14.80
2018-11-10T08:27:33.243Z,14.90
2018-11-10T08:30:01.515Z,14.90
2018-11-10T08:32:29.772Z,15.00
2018-11-10T08:34:58.011Z,15.00
2018-11-10T08:37:26.377Z,15.10
2018-11-10T08:39:54.877Z,15.10
2018-11-10T08:42:23.154Z,15.20
2018-11-10T08:44:51.405Z,15.30
2018-11-10T08:47:19.676Z,15.40
2018-11-10T08:49:47.982Z,15.50
2018-11-10T08:52:16.278Z,15.60
2018-11-10T08:54:44.592Z,15.70
2018-11-10T08:57:12.899Z,15.80
2018-11-10T08:59:41.870Z,15.80
2018-11-10T09:02:10.135Z,15.90
2018-11-10T09:04:38.417Z,16.00
2018-11-10T09:07:06.691Z,16.00
2018-11-10T09:09:35.067Z,16.10
2018-11-10T09:12:03.348Z,16.10
2018-11-10T09:14:31.602Z,16.20
2018-11-10T09:16:59.875Z,16.20
2018-11-10T09:19:28.260Z,16.30
2018-11-10T09:21:56.544Z,15.60
2018-11-10T09:24:24.829Z,16.30
2018-11-10T09:26:53.095Z,16.40
2018-11-10T09:29:21.460Z,16.40
2018-11-10T09:31:49.782Z,16.40
2018-11-10T09:34:18.019Z,16.50
2018-11-10T09:36:46.383Z,16.50
2018-11-10T09:39:14.659Z,16.50
2018-11-10T09:41:42.921Z,16.60
2018-11-10T09:44:11.257Z,16.60
2018-11-10T09:46:39.602Z,16.70
2018-11-10T09:49:07.871Z,16.70
2018-11-10T09:51:36.222Z,16.70
2018-11-10T09:54:04.502Z,16.80
2018-11-10T09:56:32.759Z,16.80
2018-11-10T09:59:01.241Z,16.80
2018-11-10T10:01:29.760Z,16.90
2018-11-10T10:03:57.891Z,16.90
2018-11-10T10:06:26.136Z,17.00
2018-11-10T10:08:54.531Z,17.00
2018-11-10T10:11:22.763Z,17.10
2018-11-10T10:13:51.015Z,17.10
2018-11-10T10:16:19.443Z,17.20
2018-11-10T10:18:47.694Z,17.20
2018-11-10T10:21:15.943Z,17.30
2018-11-10T10:23:44.244Z,17.30
2018-11-10T10:26:12.491Z,17.30
2018-11-10T10:28:40.758Z,17.30
2018-11-10T10:31:09.362Z,17.30
2018-11-10T10:33:37.927Z,17.30
2018-11-10T10:36:07.067Z,17.30
2018-11-10T10:38:35.345Z,17.30
2018-11-10T10:41:03.645Z,17.20
2018-11-10T10:43:31.952Z,17.20
2018-11-10T10:46:00.492Z,17.20
2018-11-10T10:48:29.046Z,17.10
2018-11-10T10:50:57.409Z,17.00
2018-11-10T10:53:25.718Z,16.90
2018-11-10T10:55:54.588Z,16.90
2018-11-10T10:58:22.930Z,16.70
2018-11-10T11:00:56.552Z,16.70
2018-11-10T11:03:30.273Z,16.70
2018-11-10T11:05:58.540Z,16.60
2018-11-10T11:08:26.899Z,16.50
2018-11-10T11:10:55.187Z,16.60
2018-11-10T11:13:23.468Z,16.50
2018-11-10T11:15:51.814Z,16.50
2018-11-10T11:18:20.309Z,16.50
2018-11-10T11:20:48.748Z,16.40
2018-11-10T11:23:16.986Z,16.40
2018-11-10T11:25:45.349Z,16.30
2018-11-10T11:28:13.771Z,16.30
2018-11-10T11:30:42.174Z,16.30
2018-11-10T11:33:10.464Z,16.30
2018-11-10T11:35:38.848Z,16.30
2018-11-10T11:38:07.404Z,16.30
2018-11-10T11:40:35.719Z,16.20
2018-11-10T11:43:04.110Z,16.20
2018-11-10T11:45:32.574Z,16.20
2018-11-10T11:48:00.846Z,16.10
2018-11-10T11:50:29.959Z,16.10
2018-11-10T11:52:58.279Z,16.10
2018-11-10T11:55:26.964Z,16.00
2018-11-10T11:57:55.575Z,15.90
2018-11-10T12:00:23.899Z,15.80
2018-11-10T12:02:52.205Z,15.70
2018-11-10T12:05:21.342Z,15.70
2018-11-10T12:07:49.853Z,15.60
2018-11-10T12:10:18.258Z,15.60
2018-11-10T12:12:46.570Z,15.50
2018-11-10T12:15:16.090Z,15.50
2018-11-10T12:17:44.347Z,15.50
2018-11-10T12:20:13.937Z,15.50
2018-11-10T12:25:27.474Z,15.50
2018-11-10T12:27:55.829Z,15.50
2018-11-10T12:30:24.116Z,15.40
2018-11-10T12:32:52.400Z,15.40
2018-11-10T12:35:21.117Z,15.40
2018-11-10T12:37:49.439Z,15.40
2018-11-10T12:40:17.813Z,15.50
2018-11-10T12:42:46.225Z,15.50
2018-11-10T12:45:14.692Z,15.60
2018-11-10T12:47:43.565Z,15.60
2018-11-10T12:50:12.978Z,15.60
2018-11-10T12:52:42.308Z,15.70
2018-11-10T12:55:11.957Z,15.80
2018-11-10T12:57:40.670Z,15.90
2018-11-10T13:00:10.189Z,15.90
2018-11-10T13:02:38.504Z,16.00
2018-11-10T13:05:07.367Z,16.10
2018-11-10T13:07:35.663Z,16.00
2018-11-10T13:10:04.234Z,16.10
2018-11-10T13:12:32.496Z,16.20
2018-11-10T13:15:00.754Z,16.20
2018-11-10T13:17:29.176Z,16.30
2018-11-10T13:19:57.440Z,16.30
2018-11-10T13:22:25.684Z,16.30
2018-11-10T13:24:53.952Z,16.40
2018-11-10T13:27:22.221Z,16.40
2018-11-10T13:29:50.700Z,16.40
2018-11-10T13:32:19.004Z,16.20
2018-11-10T13:34:47.416Z,16.50
2018-11-10T13:37:15.692Z,16.50
2018-11-10T13:39:43.979Z,16.60
2018-11-10T13:42:12.292Z,16.60
2018-11-10T13:44:40.538Z,16.60
2018-11-10T13:47:09.009Z,16.70
2018-11-10T13:49:37.335Z,16.70
2018-11-10T13:52:06.344Z,16.70
2018-11-10T13:54:34.285Z,16.70
2018-11-10T13:57:02.560Z,16.70
2018-11-10T13:59:30.999Z,16.80
2018-11-10T14:01:59.156Z,16.80
2018-11-10T14:04:27.619Z,16.80
2018-11-10T14:06:55.909Z,16.70
2018-11-10T14:09:24.204Z,16.80
2018-11-10T14:11:52.490Z,16.80
2018-11-10T14:14:20.714Z,16.80
2018-11-10T14:16:49.128Z,16.80
2018-11-10T14:19:17.373Z,16.70
2018-11-10T14:21:45.772Z,16.70
2018-11-10T14:24:14.303Z,16.70
2018-11-10T14:26:42.586Z,16.70
2018-11-10T14:29:10.849Z,16.70
2018-11-10T14:31:39.123Z,16.70
2018-11-10T14:34:07.532Z,16.70
2018-11-10T14:39:18.694Z,16.80
2018-11-10T14:41:46.988Z,16.80
2018-11-10T14:44:15.384Z,16.80
2018-11-10T14:46:43.632Z,16.80
2018-11-10T14:49:11.951Z,16.80
2018-11-10T14:51:40.298Z,16.80
2018-11-10T14:54:08.578Z,16.80
2018-11-10T14:56:36.903Z,16.80
2018-11-10T14:59:05.291Z,16.80
2018-11-10T15:01:33.998Z,16.90
2018-11-10T15:04:02.322Z,16.90
2018-11-10T15:06:30.765Z,16.90
2018-11-10T15:08:59.113Z,16.90
2018-11-10T15:11:27.420Z,17.00
2018-11-10T15:13:55.731Z,17.00
2018-11-10T15:16:24.056Z,17.00
2018-11-10T15:18:52.368Z,17.10
2018-11-10T15:21:20.735Z,17.10
2018-11-10T15:23:49.049Z,17.10
2018-11-10T15:26:17.372Z,17.10
2018-11-10T15:28:45.695Z,17.20
2018-11-10T15:31:13.984Z,17.20
2018-11-10T15:33:42.272Z,17.20
2018-11-10T15:36:10.563Z,17.20
2018-11-10T15:38:38.891Z,17.20
2018-11-10T15:41:13.504Z,17.20
2018-11-10T15:43:41.818Z,17.30
2018-11-10T15:46:10.088Z,17.30
2018-11-10T15:48:38.700Z,17.30
2018-11-10T15:51:06.971Z,17.30
2018-11-10T15:53:35.251Z,17.30
2018-11-10T15:56:03.868Z,17.30
2018-11-10T15:58:32.148Z,17.30
2018-11-10T16:01:00.475Z,17.30
2018-11-10T16:03:28.789Z,17.30
2018-11-10T16:05:57.100Z,17.30
2018-11-10T16:08:25.484Z,17.30
2018-11-10T16:10:53.769Z,17.30
2018-11-10T16:13:22.059Z,17.20
2018-11-10T16:15:50.358Z,17.20
2018-11-10T16:18:18.642Z,17.20
2018-11-10T16:20:47.026Z,17.20
2018-11-10T16:23:15.411Z,17.30
2018-11-10T16:25:43.675Z,17.30
2018-11-10T16:28:12.032Z,17.30
2018-11-10T16:30:40.544Z,17.30
2018-11-10T16:33:08.903Z,17.30
2018-11-10T16:35:37.220Z,17.30
2018-11-10T16:38:05.838Z,17.30
2018-11-10T16:40:34.283Z,17.30
2018-11-10T16:43:02.673Z,17.30
2018-11-10T16:45:30.969Z,17.30
2018-11-10T16:47:59.350Z,17.30
2018-11-10T16:50:27.664Z,17.40
2018-11-10T16:52:56.198Z,17.40
2018-11-10T16:55:24.556Z,17.40
2018-11-10T16:57:52.840Z,17.40
2018-11-10T17:00:21.086Z,17.40
2018-11-10T17:02:49.418Z,17.40
2018-11-10T17:05:17.654Z,17.40
2018-11-10T17:07:46.094Z,17.40
2018-11-10T17:10:15.904Z,17.40
2018-11-10T17:12:44.174Z,17.40
2018-11-10T17:15:12.445Z,17.40
2018-11-10T17:17:40.978Z,17.40
2018-11-10T17:20:11.485Z,17.40
2018-11-10T17:22:40.097Z,17.40
2018-11-10T17:25:09.133Z,17.40
2018-11-10T17:27:37.407Z,17.40
2018-11-10T17:30:08.600Z,17.40
2018-11-10T17:32:36.849Z,17.40
2018-11-10T17:35:05.372Z,17.40
2018-11-10T17:37:33.692Z,17.40
2018-11-10T17:40:02.118Z,17.40
2018-11-10T17:42:30.353Z,17.40
2018-11-10T17:44:58.695Z,17.40
2018-11-10T17:47:27.003Z,17.40
2018-11-10T17:49:55.493Z,17.40
2018-11-10T17:52:23.966Z,17.40
2018-11-10T17:54:52.363Z,17.40
2018-11-10T17:57:20.654Z,17.40
2018-11-10T17:59:48.957Z,17.40
2018-11-10T18:02:17.290Z,17.40
2018-11-10T18:04:45.511Z,17.40
2018-11-10T18:07:13.876Z,17.40
2018-11-10T18:09:42.183Z,17.40
2018-11-10T18:12:10.458Z,17.40
2018-11-10T18:14:38.767Z,17.40
2018-11-10T18:17:07.171Z,17.40
2018-11-10T18:19:35.545Z,17.40
2018-11-10T18:22:03.851Z,17.40
2018-11-10T18:24:32.677Z,17.40
2018-11-10T18:27:00.949Z,17.40
2018-11-10T18:29:29.239Z,17.40
2018-11-10T18:31:57.466Z,17.40
2018-11-10T18:34:25.773Z,17.40
2018-11-10T18:36:54.098Z,17.40
2018-11-10T18:39:29.300Z,17.30
2018-11-10T18:41:57.505Z,17.30
2018-11-10T18:44:25.791Z,17.20
2018-11-10T18:46:54.325Z,17.00
2018-11-10T18:49:22.611Z,17.00
2018-11-10T18:51:50.946Z,16.90
2018-11-10T18:54:19.328Z,16.80
2018-11-10T18:56:47.599Z,16.70
2018-11-10T18:59:15.892Z,16.70
2018-11-10T19:01:44.138Z,16.60
2018-11-10T19:04:12.433Z,16.50
2018-11-10T19:06:40.713Z,16.50
2018-11-10T19:09:11.036Z,16.40
2018-11-10T19:11:39.592Z,16.40
2018-11-10T19:14:08.293Z,16.40
2018-11-10T19:16:36.528Z,16.30
2018-11-10T19:19:05.151Z,16.30
2018-11-10T19:21:33.403Z,16.30
2018-11-10T19:24:01.719Z,16.20
2018-11-10T19:26:30.541Z,16.20
2018-11-10T19:28:58.883Z,16.10
2018-11-10T19:31:27.245Z,16.10
2018-11-10T19:33:56.214Z,16.10
2018-11-10T19:36:24.516Z,16.10
2018-11-10T19:38:52.795Z,16.00
2018-11-10T19:41:21.289Z,16.00
2018-11-10T19:43:49.880Z,16.00
2018-11-10T19:46:18.454Z,15.90
2018-11-10T19:48:46.799Z,15.90
2018-11-10T19:51:16.163Z,15.90
2018-11-10T19:53:44.926Z,15.90
2018-11-10T19:56:18.094Z,15.90
2018-11-10T19:58:53.011Z,15.90
2018-11-10T20:01:29.478Z,15.90
2018-11-10T20:04:05.771Z,15.80
2018-11-10T20:06:37.273Z,15.80
2018-11-10T20:09:11.824Z,15.80
2018-11-10T20:11:41.659Z,15.80
2018-11-10T20:14:14.903Z,15.70
2018-11-10T20:16:46.343Z,15.70
2018-11-10T20:19:17.882Z,15.80
2018-11-10T20:21:55.662Z,15.70
2018-11-10T20:24:24.437Z,15.70
2018-11-10T20:26:56.689Z,15.70
2018-11-10T20:29:30.378Z,15.70
2018-11-10T20:31:58.994Z,15.80
2018-11-10T20:34:27.639Z,15.80
2018-11-10T20:36:56.295Z,15.80
2018-11-10T20:39:26.591Z,15.90
2018-11-10T20:41:55.218Z,15.90
2018-11-10T20:44:23.504Z,15.90
2018-11-10T20:46:52.583Z,15.90
2018-11-10T20:49:20.932Z,15.90
2018-11-10T20:51:49.181Z,15.90
2018-11-10T20:54:17.606Z,15.90
2018-11-10T20:56:45.996Z,15.90
2018-11-10T20:59:14.367Z,15.90
2018-11-10T21:01:42.795Z,15.90
2018-11-10T21:04:11.064Z,15.90
2018-11-10T21:06:39.337Z,15.90
2018-11-10T21:09:10.268Z,16.00
2018-11-10T21:11:38.633Z,16.00
2018-11-10T21:14:07.210Z,16.00
2018-11-10T21:16:35.585Z,16.00
2018-11-10T21:19:03.972Z,16.00
2018-11-10T21:21:32.966Z,15.90
2018-11-10T21:24:01.278Z,16.00
2018-11-10T21:26:29.597Z,16.00
2018-11-10T21:28:58.134Z,16.00
2018-11-10T21:31:33.047Z,16.00
2018-11-10T21:34:01.472Z,16.00
2018-11-10T21:36:29.873Z,16.10
2018-11-10T21:38:58.248Z,16.10
2018-11-10T21:41:26.506Z,16.10
2018-11-10T21:43:54.810Z,16.10
2018-11-10T21:46:23.113Z,16.10
2018-11-10T21:48:51.408Z,16.10
2018-11-10T21:51:19.705Z,16.00
2018-11-10T21:53:47.980Z,16.00
2018-11-10T21:56:16.317Z,16.00
2018-11-10T21:58:44.547Z,16.00
2018-11-10T22:01:12.962Z,16.00
2018-11-10T22:03:41.330Z,16.00
2018-11-10T22:06:09.667Z,16.00
2018-11-10T22:08:37.950Z,15.90
2018-11-10T22:11:06.293Z,15.90
2018-11-10T22:13:34.628Z,15.90
2018-11-10T22:16:02.906Z,15.90
2018-11-10T22:18:31.331Z,15.90
2018-11-10T22:20:59.695Z,15.90
2018-11-10T22:23:28.115Z,15.90
2018-11-10T22:25:56.581Z,15.90
2018-11-10T22:28:24.834Z,15.90
2018-11-10T22:30:53.157Z,15.80
2018-11-10T22:33:21.523Z,15.90
2018-11-10T22:35:49.808Z,15.90
2018-11-10T22:38:18.328Z,15.90
2018-11-10T22:40:46.562Z,15.90
2018-11-10T22:43:14.824Z,15.90
2018-11-10T22:45:43.101Z,16.00
2018-11-10T22:48:11.407Z,15.90
2018-11-10T22:50:39.800Z,15.90
2018-11-10T22:53:08.184Z,15.90
2018-11-10T22:55:36.620Z,15.90
2018-11-10T22:58:05.171Z,15.90
2018-11-10T23:00:33.445Z,15.80
2018-11-10T23:03:02.781Z,15.90
2018-11-10T23:05:31.074Z,15.90
2018-11-10T23:07:59.452Z,15.90
2018-11-10T23:10:27.707Z,15.90
2018-11-10T23:12:56.068Z,15.90
2018-11-10T23:15:24.391Z,15.90
2018-11-10T23:17:52.647Z,16.00
2018-11-10T23:20:21.100Z,16.00
2018-11-10T23:22:49.591Z,16.00
2018-11-10T23:25:18.448Z,16.00
2018-11-10T23:27:46.693Z,16.00
2018-11-10T23:30:17.360Z,16.00
2018-11-10T23:32:45.673Z,16.00
2018-11-10T23:35:13.938Z,15.90
2018-11-10T23:37:42.158Z,15.90
2018-11-10T23:40:12.373Z,15.90
2018-11-10T23:42:41.148Z,15.80
2018-11-10T23:45:09.848Z,15.80
2018-11-10T23:47:38.531Z,15.80
2018-11-10T23:50:08.308Z,15.70
2018-11-10T23:52:36.845Z,15.70
2018-11-10T23:55:05.527Z,15.70
2018-11-10T23:57:33.872Z,15.70
